Time;durP1;ratioP1;P1;durP2;ratioP2;P2;SDS_P1;SDS_P2;PMS_P1;PMS_P2;Temp;Humidity;BMP_temperature;BMP_pressure;BME280_temperature;BME280_humidity;BME280_pressure;Samples;Min_cycle;Max_cycle;Signal;HPM_P1;HPM_P2
2022/09/06 00:01:39;;;;;;;4.32;2.05;;;;;;;-145.69;100.00;71088.00;5074832;28;20300;-78
2022/09/06 00:04:06;;;;;;;4.03;2.70;;;;;;;-145.69;100.00;71088.00;5075158;28;20744;-79
2022/09/06 00:06:34;;;;;;;5.07;2.55;;;;;;;-145.69;100.00;71119.84;5074971;28;20240;-78
2022/09/06 00:09:01;;;;;;;4.80;2.40;;;;;;;-145.69;100.00;71141.72;5074715;28;20649;-79
2022/09/06 00:11:30;;;;;;;6.15;2.72;;;;;;;-145.69;100.00;71095.97;5074378;28;20245;-77
2022/09/06 00:13:57;;;;;;;2.92;2.20;;;;;;;-145.69;100.00;71097.97;5074889;28;20206;-77
2022/09/06 00:16:25;;;;;;;5.20;2.45;;;;;;;-145.69;100.00;71092.00;5074861;28;20213;-77
2022/09/06 00:18:55;;;;;;;4.45;2.10;;;;;;;-145.69;100.00;71044.22;5074683;28;20233;-76
2022/09/06 00:21:25;;;;;;;3.90;2.22;;;;;;;-145.69;100.00;71054.19;5074170;28;20237;-76
2022/09/06 00:23:53;;;;;;;3.92;2.28;;;;;;;-145.69;100.00;71062.13;5073514;28;20442;-76
2022/09/06 00:26:21;;;;;;;2.80;2.17;;;;;;;-145.69;100.00;71076.06;5074693;28;20248;-77
2022/09/06 00:28:47;;;;;;;3.28;2.20;;;;;;;-145.69;100.00;71062.13;5074470;28;20221;-76
2022/09/06 00:31:17;;;;;;;3.70;1.92;;;;;;;-145.69;100.00;71078.06;5073609;28;20207;-75
2022/09/06 00:33:44;;;;;;;5.75;2.50;;;;;;;-145.69;100.00;71076.06;5074422;28;20199;-76
2022/09/06 00:36:11;;;;;;;10.73;2.58;;;;;;;-145.69;100.00;71044.22;5074206;28;20199;-76
2022/09/06 00:38:39;;;;;;;4.80;2.38;;;;;;;-145.69;100.00;71040.25;5074307;28;20229;-80
2022/09/06 00:41:09;;;;;;;4.07;2.42;;;;;;;-145.69;100.00;71052.19;5073990;28;20577;-78
2022/09/06 00:43:36;;;;;;;5.05;2.22;;;;;;;-145.69;100.00;71056.16;5073880;28;20620;-77
2022/09/06 00:46:04;;;;;;;3.05;1.92;;;;;;;-145.69;100.00;71060.16;5074177;28;20621;-76
2022/09/06 00:48:31;;;;;;;5.30;2.58;;;;;;;-145.69;100.00;71064.13;5073916;28;20277;-76
2022/09/06 00:51:02;;;;;;;4.25;2.30;;;;;;;-145.69;100.00;71092.00;5073855;28;20627;-77
2022/09/06 00:53:30;;;;;;;2.45;2.03;;;;;;;-145.69;100.00;71078.06;5074087;28;20224;-77
2022/09/06 00:55:57;;;;;;;2.88;2.13;;;;;;;-145.69;100.00;71099.94;5074155;28;20253;-76
2022/09/06 00:58:26;;;;;;;5.60;2.33;;;;;;;-145.69;100.00;71095.97;5069475;28;20198;-76
2022/09/06 01:00:53;;;;;;;2.65;2.33;;;;;;;-145.69;100.00;71109.91;5054005;28;20276;-76
2022/09/06 01:03:21;;;;;;;3.45;2.63;;;;;;;-145.69;100.00;71119.84;5053645;28;20545;-76
2022/09/06 01:06:14;;;;;;;3.65;2.60;;;;;;;-145.69;100.00;71131.78;5053756;28;20214;-76
2022/09/06 01:08:55;;;;;;;13.80;2.42;;;;;;;-145.69;100.00;71125.81;5053372;28;20550;-77
2022/09/06 01:11:46;;;;;;;3.28;2.33;;;;;;;-145.69;100.00;71093.97;5064698;28;20198;-76
2022/09/06 01:14:24;;;;;;;3.75;2.38;;;;;;;-145.69;100.00;71080.06;5070549;28;20231;-78
2022/09/06 01:16:59;;;;;;;3.38;2.28;;;;;;;-145.69;100.00;71076.06;5073643;28;20205;-76
2022/09/06 01:19:57;;;;;;;3.72;2.45;;;;;;;-145.69;100.00;71038.25;5073653;28;20201;-76
2022/09/06 01:22:49;;;;;;;4.28;2.35;;;;;;;-145.69;100.00;71060.16;5037702;28;20219;-76
2022/09/06 01:25:33;;;;;;;4.20;2.17;;;;;;;-145.69;100.00;71068.13;5073246;28;20732;-76
2022/09/06 01:28:31;;;;;;;4.10;2.53;;;;;;;-145.69;100.00;71117.84;5052210;28;20930;-76
2022/09/06 01:31:07;;;;;;;5.30;2.35;;;;;;;-145.69;100.00;71143.72;5044940;28;20289;-76
2022/09/06 01:33:40;;;;;;;8.43;3.00;;;;;;;-145.69;100.00;71109.91;5064995;28;20203;-77
2022/09/06 01:36:12;;;;;;;3.63;2.47;;;;;;;-145.69;100.00;71139.75;5053247;28;20688;-77
2022/09/06 01:38:38;;;;;;;6.80;2.78;;;;;;;-145.69;100.00;71141.72;5052995;28;20204;-76
2022/09/06 01:41:05;;;;;;;8.30;3.00;;;;;;;-145.69;100.00;71052.19;5053006;28;20219;-78
2022/09/06 01:43:40;;;;;;;3.45;2.20;;;;;;;-145.69;100.00;71014.38;5052319;28;20620;-77
2022/09/06 01:46:16;;;;;;;3.53;2.50;;;;;;;-145.69;100.00;71028.31;5053076;28;20199;-77
2022/09/06 01:49:02;;;;;;;4.15;2.35;;;;;;;-145.69;100.00;71088.00;5053075;28;20206;-77
2022/09/06 01:51:33;;;;;;;5.03;2.78;;;;;;;-145.69;100.00;71099.94;5053247;28;20257;-77
2022/09/06 01:54:16;;;;;;;7.38;3.08;;;;;;;-145.69;100.00;71092.00;5053196;28;20574;-76
2022/09/06 01:56:53;;;;;;;6.63;2.50;;;;;;;-145.69;100.00;71084.03;5065697;28;20198;-77
2022/09/06 01:59:38;;;;;;;3.90;2.47;;;;;;;-145.69;100.00;71092.00;5073096;28;20206;-76
2022/09/06 02:02:12;;;;;;;3.75;2.55;;;;;;;-145.69;100.00;71097.97;5073273;28;20256;-77
2022/09/06 02:04:45;;;;;;;4.32;2.70;;;;;;;-145.69;100.00;71109.91;5073194;28;20255;-76
2022/09/06 02:07:18;;;;;;;6.88;2.83;;;;;;;-145.69;100.00;71141.72;5073289;28;20198;-77
2022/09/06 02:09:49;;;;;;;10.88;2.35;;;;;;;-145.69;100.00;71147.69;5072464;28;20209;-77
2022/09/06 02:12:18;;;;;;;4.05;2.80;;;;;;;-145.69;100.00;71131.78;5072895;28;20199;-77
2022/09/06 02:14:51;;;;;;;4.85;2.85;;;;;;;-145.69;100.00;71129.78;5072912;28;20195;-77
2022/09/06 02:17:23;;;;;;;7.38;3.00;;;;;;;-145.69;100.00;71095.97;5072944;28;20591;-77
2022/09/06 02:19:54;;;;;;;4.40;2.67;;;;;;;-145.69;100.00;71092.00;5072218;28;20210;-77
2022/09/06 02:22:25;;;;;;;4.53;2.83;;;;;;;-145.69;100.00;71095.97;5072613;28;20231;-77
2022/09/06 02:24:53;;;;;;;4.95;2.70;;;;;;;-145.69;100.00;71095.97;5072695;28;20202;-76
2022/09/06 02:27:20;;;;;;;8.43;2.80;;;;;;;-145.69;100.00;71064.13;5052748;28;20203;-78
2022/09/06 02:29:48;;;;;;;5.20;2.40;;;;;;;-145.69;100.00;71074.09;5052407;28;20722;-77
2022/09/06 02:32:19;;;;;;;5.97;3.20;;;;;;;-145.69;100.00;71086.03;5052535;28;20211;-78
2022/09/06 02:34:46;;;;;;;8.02;2.88;;;;;;;-145.69;100.00;71103.94;5052270;28;20235;-77
2022/09/06 02:37:13;;;;;;;5.72;2.53;;;;;;;-145.69;100.00;71111.88;5052912;28;20204;-77
2022/09/06 02:39:40;;;;;;;5.65;2.80;;;;;;;-145.69;100.00;71103.94;5052268;28;20458;-77
2022/09/06 02:42:10;;;;;;;7.32;3.20;;;;;;;-145.69;100.00;71088.00;5052524;28;20227;-77
2022/09/06 02:44:36;;;;;;;6.28;2.90;;;;;;;-145.69;100.00;71080.06;5052545;28;20207;-76
2022/09/06 02:47:04;;;;;;;6.32;3.08;;;;;;;-145.69;100.00;71076.06;5052414;28;20207;-75
2022/09/06 02:49:31;;;;;;;4.72;3.08;;;;;;;-145.69;100.00;71068.13;5051908;28;20247;-75
2022/09/06 02:51:58;;;;;;;6.53;3.20;;;;;;;-145.69;100.00;71070.09;5052576;28;20594;-77
2022/09/06 02:54:24;;;;;;;5.78;3.17;;;;;;;-145.69;100.00;71084.03;5057836;28;20647;-78
2022/09/06 02:56:51;;;;;;;6.22;2.50;;;;;;;-145.69;100.00;71127.81;5071247;28;20202;-76
2022/09/06 02:59:17;;;;;;;6.97;2.75;;;;;;;-145.69;100.00;71151.69;5076301;28;20252;-76
2022/09/06 03:01:44;;;;;;;6.70;2.90;;;;;;;-145.69;100.00;71179.53;5075546;28;20297;-76
2022/09/06 03:04:12;;;;;;;5.85;3.03;;;;;;;-145.69;100.00;71175.56;5076384;28;20214;-77
2022/09/06 03:06:38;;;;;;;8.25;3.45;;;;;;;-145.69;100.00;71143.72;5076130;28;20203;-77
2022/09/06 03:09:04;;;;;;;3.22;2.65;;;;;;;-145.69;100.00;71179.53;5076164;28;20194;-76
2022/09/06 03:11:31;;;;;;;7.65;3.10;;;;;;;-145.69;100.00;71179.53;5076033;28;20218;-77
2022/09/06 03:13:57;;;;;;;7.60;3.50;;;;;;;-145.69;100.00;71161.63;5075877;28;20202;-77
2022/09/06 03:16:24;;;;;;;7.05;3.38;;;;;;;-145.69;100.00;71153.66;5075834;28;20198;-78
2022/09/06 03:18:50;;;;;;;6.15;2.97;;;;;;;-145.69;100.00;71195.47;5076045;28;20260;-78
2022/09/06 03:21:18;;;;;;;9.27;3.55;;;;;;;-145.69;100.00;71199.44;5075628;28;20728;-76
2022/09/06 03:23:48;;;;;;;6.55;3.25;;;;;;;-145.69;100.00;71229.28;5075887;28;20202;-77
2022/09/06 03:26:14;;;;;;;7.15;3.47;;;;;;;-145.69;100.00;71243.22;5074485;28;20442;-77
2022/09/06 03:28:41;;;;;;;12.35;4.15;;;;;;;-145.69;100.00;71235.25;5075686;28;20199;-77
2022/09/06 03:31:09;;;;;;;10.38;3.55;;;;;;;-145.69;100.00;71267.09;5075440;28;20199;-77
2022/09/06 03:33:35;;;;;;;7.50;3.85;;;;;;;-145.69;100.00;71227.28;5075356;28;20198;-78
2022/09/06 03:36:02;;;;;;;12.10;3.50;;;;;;;-145.69;100.00;71233.25;5075480;28;20206;-78
2022/09/06 03:38:30;;;;;;;8.07;3.45;;;;;;;-145.69;100.00;71251.16;5075604;28;20202;-78
2022/09/06 03:40:57;;;;;;;9.93;3.55;;;;;;;-145.69;100.00;71265.09;5075387;28;20221;-78
2022/09/06 03:43:25;;;;;;;10.18;3.63;;;;;;;-145.69;100.00;71267.09;5074992;28;20233;-78
2022/09/06 03:45:53;;;;;;;17.33;4.35;;;;;;;-145.69;100.00;71225.31;5075270;28;20546;-77
2022/09/06 03:48:22;;;;;;;10.82;4.13;;;;;;;-145.69;100.00;71183.50;5074827;28;20627;-76
2022/09/06 03:50:50;;;;;;;12.68;3.83;;;;;;;-145.69;100.00;71169.59;5075171;28;20230;-77
2022/09/06 03:53:18;;;;;;;16.70;3.88;;;;;;;-145.69;100.00;71173.56;5075365;28;20203;-78
2022/09/06 03:55:52;;;;;;;8.68;3.17;;;;;;;-145.69;100.00;71199.44;5074918;28;20194;-78
2022/09/06 03:58:21;;;;;;;8.75;3.15;;;;;;;-145.69;100.00;71203.41;5075061;28;20205;-77
2022/09/06 04:00:48;;;;;;;10.52;3.83;;;;;;;-145.69;100.00;71207.38;5074647;28;20592;-76
2022/09/06 04:03:14;;;;;;;12.95;3.55;;;;;;;-145.69;100.00;71229.28;5074898;28;20586;-77
2022/09/06 04:05:44;;;;;;;10.73;3.78;;;;;;;-145.69;100.00;71253.16;5074054;28;20210;-75
2022/09/06 04:08:11;;;;;;;6.95;3.78;;;;;;;-145.69;100.00;71271.06;5074682;28;20699;-78
2022/09/06 04:10:38;;;;;;;9.27;3.35;;;;;;;-145.69;100.00;71273.06;5074657;28;20607;-77
2022/09/06 04:13:05;;;;;;;10.55;3.92;;;;;;;-145.69;100.00;71281.00;5075138;28;20194;-79
2022/09/06 04:15:32;;;;;;;9.48;4.10;;;;;;;-145.69;100.00;71290.97;5074865;28;20203;-77
2022/09/06 04:17:58;;;;;;;13.88;4.38;;;;;;;-145.69;100.00;71275.03;5074885;28;20202;-77
2022/09/06 04:20:27;;;;;;;15.02;4.35;;;;;;;-145.69;100.00;71310.84;5074666;28;20210;-78
2022/09/06 04:22:53;;;;;;;7.68;3.88;;;;;;;-145.69;100.00;71326.78;5075111;28;20226;-77
2022/09/06 04:25:20;;;;;;;6.88;3.75;;;;;;;-145.69;100.00;71338.72;5074367;28;20213;-77
2022/09/06 04:27:48;;;;;;;6.07;3.88;;;;;;;-145.69;100.00;71344.69;5074337;28;20653;-77
2022/09/06 04:30:16;;;;;;;6.97;4.38;;;;;;;-145.69;100.00;71344.69;5074657;28;20195;-76
2022/09/06 04:32:43;;;;;;;8.25;4.32;;;;;;;-145.69;100.00;71342.69;5074288;28;20209;-76
2022/09/06 04:35:09;;;;;;;13.70;5.10;;;;;;;-145.69;100.00;71308.88;5074228;28;20199;-76
2022/09/06 04:37:36;;;;;;;14.43;4.78;;;;;;;-145.69;100.00;71290.97;5074239;28;20199;-76
2022/09/06 04:40:03;;;;;;;12.35;4.30;;;;;;;-145.69;100.00;71290.97;5074540;28;20207;-77
2022/09/06 04:42:29;;;;;;;11.07;4.80;;;;;;;-145.69;100.00;71304.91;5073886;28;20619;-76
2022/09/06 04:44:56;;;;;;;11.60;5.32;;;;;;;-145.69;100.00;71294.94;5074293;28;20612;-76
2022/09/06 04:47:25;;;;;;;17.02;4.93;;;;;;;-145.69;100.00;71288.97;5074253;28;20539;-76
2022/09/06 04:49:53;;;;;;;11.68;4.10;;;;;;;-145.69;100.00;71306.88;5066967;28;20247;-76
2022/09/06 04:52:20;;;;;;;14.38;4.85;;;;;;;-145.69;100.00;71300.91;5053994;28;20204;-77
2022/09/06 04:54:46;;;;;;;10.65;4.65;;;;;;;-145.69;100.00;71324.78;5057100;28;20199;-76
2022/09/06 04:57:13;;;;;;;6.57;3.85;;;;;;;-145.69;100.00;71344.69;5074056;28;20195;-76
2022/09/06 04:59:39;;;;;;;15.15;4.68;;;;;;;-145.69;100.00;71350.66;5073909;28;20203;-77
2022/09/06 05:02:05;;;;;;;7.40;3.85;;;;;;;-145.69;100.00;71358.63;5073813;28;20558;-76
2022/09/06 05:04:33;;;;;;;11.50;4.40;;;;;;;-145.69;100.00;71362.59;5073253;28;20601;-75
2022/09/06 05:07:01;;;;;;;9.77;4.95;;;;;;;-145.69;100.00;71366.56;5072605;28;20917;-77
2022/09/06 05:09:28;;;;;;;9.15;4.57;;;;;;;-145.69;100.00;71366.56;5073428;28;20293;-77
2022/09/06 05:11:55;;;;;;;13.80;5.10;;;;;;;-145.69;100.00;71358.63;5073712;28;20213;-77
2022/09/06 05:14:21;;;;;;;13.50;5.22;;;;;;;-145.69;100.00;71346.69;5073867;28;20542;-76
2022/09/06 05:16:48;;;;;;;14.35;5.15;;;;;;;-145.69;100.00;71350.66;5073477;28;20206;-76
2022/09/06 05:19:15;;;;;;;11.85;4.72;;;;;;;-145.69;100.00;71344.69;5073588;28;20202;-77
2022/09/06 05:21:43;;;;;;;11.13;4.57;;;;;;;-145.69;100.00;71340.72;5073445;28;20214;-78
2022/09/06 05:24:09;;;;;;;8.30;4.55;;;;;;;-145.69;100.00;71348.66;5073180;28;20199;-77
2022/09/06 05:26:35;;;;;;;9.57;5.18;;;;;;;-145.69;100.00;71342.69;5073617;28;20383;-77
2022/09/06 05:29:02;;;;;;;9.02;4.20;;;;;;;-145.69;100.00;71336.72;5073128;28;20203;-77
2022/09/06 05:31:30;;;;;;;12.15;5.15;;;;;;;-145.69;100.00;71348.66;5073381;28;20202;-77
2022/09/06 05:33:57;;;;;;;12.68;4.97;;;;;;;-145.69;100.00;71338.72;5072951;28;20201;-77
2022/09/06 05:36:24;;;;;;;11.70;4.20;;;;;;;-145.69;100.00;71358.63;5073383;28;20230;-77
2022/09/06 05:38:53;;;;;;;11.40;4.40;;;;;;;-145.69;100.00;71356.63;5073272;28;20229;-77
2022/09/06 05:41:20;;;;;;;10.05;4.05;;;;;;;-145.69;100.00;71358.63;5073258;28;20233;-77
2022/09/06 05:43:47;;;;;;;10.77;4.80;;;;;;;-145.69;100.00;71358.63;5072318;28;20458;-78
2022/09/06 05:46:15;;;;;;;10.50;4.00;;;;;;;-145.69;100.00;71370.56;5072663;28;20207;-76
2022/09/06 05:48:41;;;;;;;15.82;4.35;;;;;;;-145.69;100.00;71366.56;5073551;28;20260;-77
2022/09/06 05:51:11;;;;;;;7.40;3.67;;;;;;;-145.69;100.00;71356.63;5072939;28;20231;-76
2022/09/06 05:53:39;;;;;;;10.90;3.85;;;;;;;-145.69;100.00;71346.69;5072826;28;20560;-79
2022/09/06 05:56:08;;;;;;;7.70;4.07;;;;;;;-145.69;100.00;71334.75;5072618;28;20244;-76
2022/09/06 05:58:35;;;;;;;11.73;4.90;;;;;;;-145.69;100.00;71302.91;5073009;28;20657;-77
2022/09/06 06:01:14;;;;;;;17.48;5.50;;;;;;;-145.69;100.00;71285.00;5072735;28;20636;-78
2022/09/06 06:03:40;;;;;;;8.13;3.95;;;;;;;-145.69;100.00;71279.03;5072873;28;20222;-77
2022/09/06 06:06:07;;;;;;;12.05;4.65;;;;;;;-145.69;100.00;71273.06;5073099;28;20199;-76
2022/09/06 06:08:34;;;;;;;11.98;4.32;;;;;;;-145.69;100.00;71255.16;5073282;28;20561;-77
2022/09/06 06:11:01;;;;;;;11.02;4.07;;;;;;;-145.69;100.00;71241.22;5072962;28;20656;-76
2022/09/06 06:13:33;;;;;;;14.73;4.00;;;;;;;-145.69;100.00;71219.34;5072769;28;20195;-77
2022/09/06 06:16:00;;;;;;;11.00;3.97;;;;;;;-145.69;100.00;71209.38;5072764;28;20198;-77
2022/09/06 06:18:26;;;;;;;9.45;4.22;;;;;;;-145.69;100.00;71189.47;5072633;28;20194;-76
2022/09/06 06:21:06;;;;;;;11.43;3.72;;;;;;;-145.69;100.00;71167.59;5072813;28;20203;-77
2022/09/06 06:23:32;;;;;;;14.02;4.18;;;;;;;-145.69;100.00;71139.75;5072338;28;20624;-76
2022/09/06 06:25:59;;;;;;;10.05;3.90;;;;;;;-145.69;100.00;71111.88;5072280;28;20195;-77
2022/09/06 06:28:25;;;;;;;11.75;3.45;;;;;;;-145.69;100.00;71088.00;5074578;28;20201;-77
2022/09/06 06:30:53;;;;;;;15.85;3.95;;;;;;;-145.69;100.00;71072.09;5076510;28;20267;-76
2022/09/06 06:33:20;;;;;;;13.75;3.70;;;;;;;-145.69;100.00;71048.22;5076649;28;20202;-76
2022/09/06 06:35:56;;;;;;;14.10;3.65;;;;;;;-145.69;100.00;71016.38;5076741;28;20205;-77
2022/09/06 06:38:23;;;;;;;7.90;3.35;;;;;;;-145.69;100.00;70992.50;5076530;28;20665;-76
2022/09/06 06:40:49;;;;;;;11.38;3.17;;;;;;;-145.69;100.00;70960.66;5076842;28;20194;-76
2022/09/06 06:43:16;;;;;;;13.75;2.90;;;;;;;-145.69;100.00;70938.78;5076669;28;20280;-77
2022/09/06 06:45:45;;;;;;;8.82;3.47;;;;;;;-145.69;100.00;70916.91;5076509;28;20627;-78
2022/09/06 06:48:15;;;;;;;7.35;2.63;;;;;;;-145.69;100.00;70881.09;5076148;28;20203;-77
2022/09/06 06:50:44;;;;;;;7.47;2.83;;;;;;;-145.69;100.00;70861.19;5076206;28;20720;-76
2022/09/06 06:53:10;;;;;;;10.93;2.63;;;;;;;-145.69;100.00;70831.34;5076320;28;20281;-76
2022/09/06 06:55:37;;;;;;;6.72;2.90;;;;;;;-145.69;100.00;70791.56;5075963;28;20199;-77
2022/09/06 06:58:03;;;;;;;14.15;3.08;;;;;;;-145.69;100.00;70765.69;5063176;28;20219;-76
2022/09/06 07:00:30;;;;;;;11.45;3.13;;;;;;;-145.69;100.00;70729.88;5056420;28;20199;-77
2022/09/06 07:02:59;;;;;;;11.70;3.35;;;;;;;-145.69;100.00;70684.13;5056040;28;20222;-77
2022/09/06 07:05:27;;;;;;;10.60;2.53;;;;;;;-145.69;100.00;70646.31;5056225;28;20211;-77
2022/09/06 07:07:54;;;;;;;8.82;3.13;;;;;;;-145.69;100.00;70638.34;5056525;28;20207;-76
2022/09/06 07:10:20;;;;;;;9.00;2.50;;;;;;;-145.69;100.00;70616.47;5056055;28;20647;-77
2022/09/06 07:12:47;;;;;;;8.60;2.88;;;;;;;-145.69;100.00;70584.66;5064266;28;20224;-77
2022/09/06 07:15:13;;;;;;;9.00;2.47;;;;;;;-145.69;99.44;70588.63;5075982;28;20210;-77
2022/09/06 07:17:40;;;;;;;9.68;2.55;;;;;;;-145.69;100.00;70572.72;5075881;28;20198;-77
2022/09/06 07:20:07;;;;;;;9.80;2.88;;;;;;;-145.69;99.78;70582.66;5075709;28;20203;-77
2022/09/06 07:22:35;;;;;;;10.45;2.53;;;;;;;-145.69;100.00;70580.66;5075931;28;20286;-76
2022/09/06 07:25:02;;;;;;;10.15;3.00;;;;;;;-145.69;96.70;70548.84;5075356;28;20201;-76
2022/09/06 07:27:28;;;;;;;11.48;2.97;;;;;;;-145.69;96.33;70536.91;5075565;28;20224;-77
2022/09/06 07:29:55;;;;;;;9.38;2.45;;;;;;;-145.69;95.23;70505.06;5075771;28;20198;-77
2022/09/06 07:32:24;;;;;;;7.80;2.50;;;;;;;-145.69;95.36;70467.28;5075439;28;20225;-77
2022/09/06 07:34:50;;;;;;;9.75;2.58;;;;;;;-145.69;94.25;70459.31;5075497;28;20202;-76
2022/09/06 07:37:17;;;;;;;10.27;2.78;;;;;;;-145.69;91.26;70435.44;5075557;28;20626;-76
2022/09/06 07:39:45;;;;;;;8.07;2.30;;;;;;;-145.69;88.29;70413.56;5074188;28;20199;-76
2022/09/06 07:42:11;;;;;;;9.18;2.50;;;;;;;-145.69;88.29;70379.72;5075746;28;20206;-77
2022/09/06 07:44:38;;;;;;;7.95;2.22;;;;;;;-145.69;88.09;70379.72;5075086;28;20199;-76
2022/09/06 07:47:05;;;;;;;8.63;2.15;;;;;;;-145.69;89.45;70393.66;5075062;28;20198;-76
2022/09/06 07:49:32;;;;;;;7.68;2.20;;;;;;;-145.69;88.62;70359.84;5074956;28;20325;-77
2022/09/06 07:51:58;;;;;;;6.40;2.10;;;;;;;-145.69;88.36;70355.88;5075327;28;20205;-77
2022/09/06 07:54:28;;;;;;;5.10;2.20;;;;;;;-145.69;89.52;70363.81;5075199;28;20198;-77
2022/09/06 07:56:55;;;;;;;12.00;2.42;;;;;;;-145.69;85.99;70343.94;5075017;28;20592;-79
2022/09/06 07:59:22;;;;;;;8.35;2.30;;;;;;;-145.69;82.90;70353.88;5075118;28;20198;-78
2022/09/06 08:01:48;;;;;;;10.60;2.42;;;;;;;-145.69;83.69;70355.88;5074429;28;20198;-78
2022/09/06 08:04:16;;;;;;;15.18;2.50;;;;;;;-145.69;84.85;70363.81;5074600;28;20234;-78
2022/09/06 08:06:45;;;;;;;10.57;2.33;;;;;;;-145.69;83.33;70367.81;5075248;28;20203;-78
2022/09/06 08:09:11;;;;;;;8.27;2.40;;;;;;;-145.69;86.58;70339.94;5070514;28;20646;-78
2022/09/06 08:11:38;;;;;;;11.70;2.55;;;;;;;-145.69;81.69;70363.81;5054373;28;20680;-78
2022/09/06 08:14:08;;;;;;;14.55;2.80;;;;;;;-145.69;88.24;70369.78;5054693;28;20207;-76
2022/09/06 08:16:36;;;;;;;22.35;2.97;;;;;;;-145.69;83.50;70339.94;5054606;28;20282;-78
2022/09/06 08:19:06;;;;;;;12.10;2.80;;;;;;;-145.69;84.24;70355.88;5063325;28;20658;-78
2022/09/06 08:21:33;;;;;;;16.30;2.70;;;;;;;-145.69;84.83;70367.81;5074575;28;20194;-77
2022/09/06 08:24:02;;;;;;;7.15;2.53;;;;;;;-145.69;85.81;70332.00;5074557;28;20570;-75
2022/09/06 08:26:30;;;;;;;11.40;2.80;;;;;;;-145.69;81.73;70300.16;5074656;28;20202;-77
2022/09/06 08:28:59;;;;;;;9.85;2.67;;;;;;;-145.69;83.65;70296.19;5073821;28;20222;-77
2022/09/06 08:31:28;;;;;;;13.23;2.70;;;;;;;-145.69;83.04;70280.28;5074492;28;20589;-77
2022/09/06 08:33:55;;;;;;;11.70;3.20;;;;;;;-145.69;83.17;70288.22;5074567;28;20203;-78
2022/09/06 08:36:22;;;;;;;7.47;2.75;;;;;;;-145.69;83.83;70268.34;5073890;28;20199;-80
2022/09/06 08:38:48;;;;;;;15.48;2.63;;;;;;;-145.69;83.29;70312.09;5074113;28;20226;-79
2022/09/06 08:41:23;;;;;;;10.73;2.50;;;;;;;-145.69;85.78;70272.31;5074011;28;20203;-79
2022/09/06 08:43:53;;;;;;;9.82;2.60;;;;;;;-145.69;83.60;70242.47;5073731;28;20644;-80
2022/09/06 08:46:23;;;;;;;9.90;2.95;;;;;;;-145.69;79.13;70196.72;5074352;28;20293;-79
2022/09/06 08:48:51;;;;;;;8.05;2.65;;;;;;;-145.69;78.75;70198.72;5074264;28;20199;-79
2022/09/06 08:51:46;;;;;;;7.90;2.17;;;;;;;-145.69;73.40;70160.91;5073822;28;20290;-79
2022/09/06 08:54:20;;;;;;;6.97;2.00;;;;;;;-145.69;77.89;70137.03;5073627;28;20548;-80
2022/09/06 08:57:09;;;;;;;6.07;2.30;;;;;;;-145.69;74.65;70141.03;5073552;28;20210;-79
2022/09/06 08:59:38;;;;;;;7.38;2.35;;;;;;;-145.69;76.74;70141.03;5073016;28;20195;-78
2022/09/06 09:02:11;;;;;;;6.68;2.45;;;;;;;-145.69;74.29;70139.03;5073655;28;20238;-77
2022/09/06 09:04:43;;;;;;;7.85;2.50;;;;;;;-145.69;77.84;70186.78;5074024;28;20760;-78
2022/09/06 09:07:23;;;;;;;9.68;2.33;;;;;;;-145.69;74.81;70141.03;5053838;28;20225;-79
2022/09/06 09:09:52;;;;;;;13.82;2.97;;;;;;;-145.69;73.64;70137.03;5054074;28;20199;-79
2022/09/06 09:12:22;;;;;;;11.80;2.50;;;;;;;-145.69;74.65;70176.81;5053697;28;20203;-78
2022/09/06 09:14:51;;;;;;;9.60;2.53;;;;;;;-145.69;75.23;70206.66;5053618;28;20203;-79
2022/09/06 09:17:26;;;;;;;6.20;2.60;;;;;;;-145.69;80.60;70172.84;5053661;28;20203;-79
2022/09/06 09:19:55;;;;;;;6.53;2.20;;;;;;;-145.69;79.04;70141.03;5053750;28;20202;-78
2022/09/06 09:22:23;;;;;;;9.27;2.05;;;;;;;-145.69;75.66;70105.22;5053517;28;20196;-79
2022/09/06 09:24:51;;;;;;;12.32;2.50;;;;;;;-145.69;75.86;70150.97;5073342;28;20234;-79
2022/09/06 09:27:21;;;;;;;7.90;2.13;;;;;;;-145.69;77.48;70107.19;5073141;28;20195;-79
2022/09/06 09:30:00;;;;;;;9.50;2.65;;;;;;;-145.69;74.30;70097.25;5073497;28;20207;-79
2022/09/06 09:32:31;;;;;;;13.73;2.58;;;;;;;-145.69;74.65;70103.22;5073312;28;20213;-79
2022/09/06 09:35:16;;;;;;;7.25;2.47;;;;;;;-145.69;76.51;70186.78;5073231;28;20669;-78
2022/09/06 09:37:43;;;;;;;8.88;2.67;;;;;;;-145.69;82.03;70204.69;5073006;28;20657;-79
2022/09/06 09:40:14;;;;;;;7.95;2.80;;;;;;;-145.69;79.50;70188.75;5073365;28;20209;-78
2022/09/06 09:42:40;;;;;;;7.55;2.75;;;;;;;-145.69;79.04;70145.00;5073313;28;20301;-79
2022/09/06 09:45:28;;;;;;;11.27;2.38;;;;;;;-145.69;80.62;70184.78;5072979;28;20230;-78
2022/09/06 09:47:55;;;;;;;11.88;2.67;;;;;;;-145.69;80.05;70240.47;5073023;28;20668;-78
2022/09/06 09:50:26;;;;;;;8.13;2.33;;;;;;;-145.69;82.44;70232.53;5072927;28;20230;-79
2022/09/06 09:52:53;;;;;;;8.25;2.03;;;;;;;-145.69;79.24;70240.47;5072919;28;20187;-79
2022/09/06 09:55:23;;;;;;;8.13;2.42;;;;;;;-145.69;79.13;70208.66;5073145;28;20206;-78
2022/09/06 09:57:50;;;;;;;7.40;2.22;;;;;;;-145.69;78.88;70158.94;5072674;28;20198;-79
2022/09/06 10:00:33;;;;;;;8.15;2.72;;;;;;;-145.69;78.72;70204.69;5071585;28;20201;-79
2022/09/06 10:03:01;;;;;;;8.13;2.15;;;;;;;-145.69;79.71;70248.44;5072072;28;20187;-78
2022/09/06 10:05:28;;;;;;;10.43;2.30;;;;;;;-145.69;80.49;70288.22;5072693;28;20233;-78
2022/09/06 10:07:58;;;;;;;7.40;2.55;;;;;;;-145.69;83.94;70304.13;5072670;28;20214;-78
2022/09/06 10:10:26;;;;;;;6.57;2.20;;;;;;;-145.69;84.86;70324.03;5072539;28;20198;-77
2022/09/06 10:13:07;;;;;;;8.35;2.55;;;;;;;-145.69;83.67;70276.28;5073063;28;20281;-78
2022/09/06 10:15:35;;;;;;;12.43;2.95;;;;;;;-145.69;83.29;70256.41;5072819;28;20225;-79
2022/09/06 10:18:02;;;;;;;12.10;2.97;;;;;;;-145.69;86.52;70270.31;5072977;28;20256;-79
2022/09/06 10:20:35;;;;;;;8.43;2.50;;;;;;;-145.69;85.11;70252.41;5072714;28;20661;-78
2022/09/06 10:23:08;;;;;;;11.70;2.70;;;;;;;-145.69;85.85;70280.28;5072525;28;20267;-78
2022/09/06 10:25:43;;;;;;;12.02;2.85;;;;;;;-145.69;85.53;70300.16;5072637;28;20631;-79
2022/09/06 10:28:30;;;;;;;12.20;2.78;;;;;;;-145.69;85.18;70290.22;5072759;28;20197;-79
2022/09/06 10:31:12;;;;;;;13.63;2.60;;;;;;;-145.69;83.91;70284.25;5072866;28;20207;-79
2022/09/06 10:33:52;;;;;;;10.55;2.50;;;;;;;-145.69;85.97;70349.91;5072844;28;20202;-77
2022/09/06 10:36:25;;;;;;;10.52;2.40;;;;;;;-145.69;91.89;70361.84;5072713;28;20206;-81
2022/09/06 10:38:56;;;;;;;9.52;2.60;;;;;;;-145.69;89.14;70355.88;5073084;28;20203;-79
2022/09/06 10:41:34;;;;;;;11.90;3.15;;;;;;;-145.69;91.75;70341.94;5072348;28;20210;-79
2022/09/06 10:44:14;;;;;;;11.50;2.55;;;;;;;-145.69;92.27;70320.06;5072483;28;20233;-79
2022/09/06 10:46:44;;;;;;;7.97;2.63;;;;;;;-145.69;91.21;70298.16;5072431;28;20666;-79
2022/09/06 10:49:17;;;;;;;13.13;2.90;;;;;;;-145.69;93.88;70308.13;5072285;28;20227;-79
2022/09/06 10:51:49;;;;;;;8.43;2.40;;;;;;;-145.69;93.24;70312.09;5072629;28;20268;-79
2022/09/06 10:54:20;;;;;;;9.43;3.10;;;;;;;-145.69;90.96;70280.28;5072281;28;20275;-79
2022/09/06 10:56:52;;;;;;;10.43;2.65;;;;;;;-145.69;88.73;70256.41;5072427;28;20206;-79
2022/09/06 10:59:23;;;;;;;10.27;2.38;;;;;;;-145.69;83.92;70204.69;5072572;28;20256;-78
2022/09/06 11:02:01;;;;;;;7.72;2.53;;;;;;;-145.69;82.43;70186.78;5072649;28;20285;-78
2022/09/06 11:04:31;;;;;;;13.52;2.70;;;;;;;-145.69;78.46;70095.28;5072015;28;20572;-79
2022/09/06 11:07:04;;;;;;;8.18;2.40;;;;;;;-145.69;78.57;70109.19;5059324;28;20457;-78
2022/09/06 11:09:37;;;;;;;11.23;2.30;;;;;;;-145.69;81.15;70105.22;5051961;28;20199;-79
2022/09/06 11:12:11;;;;;;;10.55;2.80;;;;;;;-145.69;81.08;70081.34;5052452;28;20286;-79
2022/09/06 11:14:39;;;;;;;8.20;2.10;;;;;;;-145.69;80.44;70083.34;5054311;28;20240;-78
2022/09/06 11:17:09;;;;;;;7.32;2.55;;;;;;;-145.69;75.41;70031.63;5055964;28;20207;-78
2022/09/06 11:19:44;;;;;;;9.13;2.50;;;;;;;-145.69;77.40;69993.81;5056064;28;20325;-78
2022/09/06 11:22:35;;;;;;;8.45;2.40;;;;;;;-145.69;73.91;69960.00;5055551;28;20557;-78